createdAt,value
2022-08-17T00:00:43.601Z,48.30
2022-08-17T00:03:08.764Z,46.80
2022-08-17T00:05:42.648Z,48.53
2022-08-17T00:08:13.008Z,49.38
2022-08-17T00:10:41.681Z,49.50
2022-08-17T00:13:12.535Z,47.38
2022-08-17T00:15:40.682Z,47.97
2022-08-17T00:18:58.403Z,48.85
2022-08-17T00:20:59.382Z,48.42
2022-08-17T00:23:29.015Z,48.55
2022-08-17T00:25:57.135Z,48.03
2022-08-17T00:28:25.360Z,49.55
2022-08-17T00:30:54.032Z,48.85
2022-08-17T00:33:27.498Z,47.97
2022-08-17T00:35:58.416Z,50.40
2022-08-17T00:38:28.012Z,50.10
2022-08-17T00:40:59.552Z,47.00
2022-08-17T00:43:32.080Z,47.03
2022-08-17T00:46:02.718Z,46.67
2022-08-17T00:48:31.497Z,47.08
2022-08-17T00:51:06.350Z,46.53
2022-08-17T00:53:36.552Z,47.28
2022-08-17T00:56:08.979Z,46.78
2022-08-17T00:58:37.611Z,46.83
2022-08-17T01:01:07.893Z,48.28
2022-08-17T01:03:36.972Z,45.35
2022-08-17T01:06:09.037Z,45.92
2022-08-17T01:08:39.224Z,48.42
2022-08-17T01:11:09.218Z,47.90
2022-08-17T01:13:43.010Z,48.17
2022-08-17T01:16:17.318Z,48.75
2022-08-17T01:18:47.807Z,46.35
2022-08-17T01:21:25.886Z,48.47
2022-08-17T01:23:55.276Z,49.15
2022-08-17T01:26:23.877Z,51.63
2022-08-17T01:28:55.536Z,47.42
2022-08-17T01:31:25.946Z,47.95
2022-08-17T01:33:54.003Z,47.00
2022-08-17T01:36:21.961Z,34.72
2022-08-17T01:38:49.911Z,28.90
2022-08-17T01:41:22.190Z,36.83
2022-08-17T01:43:55.004Z,29.50
2022-08-17T01:46:28.912Z,32.45
2022-08-17T01:48:57.945Z,33.38
2022-08-17T01:51:27.697Z,35.45
2022-08-17T01:54:02.239Z,36.90
2022-08-17T01:56:33.403Z,34.67
2022-08-17T01:59:01.665Z,36.55
2022-08-17T02:01:32.399Z,35.72
2022-08-17T02:04:01.787Z,35.35
2022-08-17T02:06:44.956Z,37.88
2022-08-17T02:09:14.704Z,34.25
2022-08-17T02:11:46.388Z,36.22
2022-08-17T02:14:14.794Z,36.08
2022-08-17T02:16:43.219Z,34.65
2022-08-17T02:19:14.181Z,35.78
2022-08-17T02:21:43.392Z,35.40
2022-08-17T02:24:16.694Z,34.88
2022-08-17T02:26:46.858Z,39.30
2022-08-17T02:29:15.791Z,30.38
2022-08-17T02:31:43.872Z,27.80
2022-08-17T02:34:11.913Z,33.28
2022-08-17T02:36:39.774Z,27.48
2022-08-17T02:39:10.165Z,26.45
2022-08-17T02:41:39.157Z,27.00
2022-08-17T02:44:09.040Z,30.08
2022-08-17T02:46:36.992Z,26.58
2022-08-17T02:49:05.840Z,26.10
2022-08-17T02:51:33.961Z,26.85
2022-08-17T02:54:39.106Z,26.58
2022-08-17T02:56:49.703Z,24.45
2022-08-17T02:59:18.905Z,25.90
2022-08-17T03:01:46.832Z,27.98
2022-08-17T03:04:15.016Z,26.45
2022-08-17T03:06:42.882Z,24.60
2022-08-17T03:09:10.761Z,22.00
2022-08-17T03:11:38.631Z,22.50
2022-08-17T03:14:06.517Z,20.83
2022-08-17T03:16:35.876Z,21.88
2022-08-17T03:19:04.270Z,17.48
2022-08-17T03:21:32.561Z,21.38
2022-08-17T03:24:00.450Z,17.33
2022-08-17T03:26:29.999Z,15.93
2022-08-17T03:28:58.293Z,15.88
2022-08-17T03:31:26.238Z,15.90
2022-08-17T03:33:56.330Z,15.20
2022-08-17T03:36:24.363Z,17.23
2022-08-17T03:38:52.203Z,14.40
2022-08-17T03:41:23.088Z,14.05
2022-08-17T03:43:50.942Z,15.18
2022-08-17T03:46:36.554Z,13.07
2022-08-17T03:49:34.358Z,12.60
2022-08-17T03:52:19.957Z,13.43
2022-08-17T03:55:05.306Z,13.43
2022-08-17T03:57:35.078Z,12.07
2022-08-17T04:00:04.402Z,11.98
2022-08-17T04:02:34.604Z,11.40
2022-08-17T04:05:04.060Z,12.02
2022-08-17T04:07:32.667Z,11.95
2022-08-17T04:10:00.952Z,11.52
2022-08-17T04:12:31.390Z,11.60
2022-08-17T04:14:59.419Z,10.20
2022-08-17T04:17:29.319Z,11.98
2022-08-17T04:19:58.049Z,11.70
2022-08-17T04:22:33.070Z,10.48
2022-08-17T04:25:04.908Z,10.80
2022-08-17T04:27:32.829Z,10.55
2022-08-17T04:30:00.680Z,10.95
2022-08-17T04:33:05.270Z,10.63
2022-08-17T04:35:20.245Z,11.13
2022-08-17T04:37:49.718Z,13.50
2022-08-17T04:40:36.543Z,15.65
2022-08-17T04:43:07.227Z,13.25
2022-08-17T04:45:39.173Z,14.20
2022-08-17T04:48:07.632Z,16.35
2022-08-17T04:50:36.203Z,15.45
2022-08-17T04:53:05.405Z,16.73
2022-08-17T04:55:33.283Z,15.93
2022-08-17T04:58:01.186Z,18.35
2022-08-17T05:00:29.238Z,17.83
2022-08-17T05:02:57.447Z,18.50
2022-08-17T05:05:27.768Z,18.63
2022-08-17T05:07:57.390Z,19.67
2022-08-17T05:10:30.332Z,19.65
2022-08-17T05:13:00.228Z,20.35
2022-08-17T05:15:29.243Z,23.02
2022-08-17T05:18:01.115Z,21.67
2022-08-17T05:20:29.783Z,22.10
2022-08-17T05:22:59.927Z,22.23
2022-08-17T05:25:32.799Z,22.27
2022-08-17T05:28:04.756Z,21.70
2022-08-17T05:30:34.780Z,22.52
2022-08-17T05:33:08.809Z,21.85
2022-08-17T05:35:40.095Z,21.80
2022-08-17T05:38:09.211Z,21.48
2022-08-17T05:40:39.116Z,21.48
2022-08-17T05:43:09.034Z,21.27
2022-08-17T05:45:55.555Z,24.45
2022-08-17T05:48:39.131Z,19.55
2022-08-17T05:51:31.673Z,21.00
2022-08-17T05:54:16.914Z,19.02
2022-08-17T05:57:05.751Z,20.33
2022-08-17T05:59:52.877Z,20.73
2022-08-17T06:02:26.005Z,20.30
2022-08-17T06:05:06.455Z,19.95
2022-08-17T06:07:42.549Z,21.67
2022-08-17T06:10:15.602Z,21.25
2022-08-17T06:12:57.083Z,21.02
2022-08-17T06:15:32.852Z,22.67
2022-08-17T06:18:05.205Z,22.73
2022-08-17T06:20:43.757Z,22.92
2022-08-17T06:23:15.450Z,21.88
2022-08-17T06:25:49.135Z,22.15
2022-08-17T06:28:26.802Z,22.38
2022-08-17T06:31:01.365Z,21.65
2022-08-17T06:33:34.387Z,22.15
2022-08-17T06:36:11.583Z,21.13
2022-08-17T06:38:54.362Z,20.70
2022-08-17T06:41:31.559Z,20.48
2022-08-17T06:44:42.335Z,20.73
2022-08-17T06:47:07.445Z,21.05
2022-08-17T06:49:43.390Z,19.23
2022-08-17T06:52:46.107Z,19.52
2022-08-17T06:55:18.146Z,19.27
2022-08-17T06:57:50.112Z,20.83
2022-08-17T07:00:23.229Z,20.35
2022-08-17T07:02:56.201Z,19.45
2022-08-17T07:05:27.656Z,20.10
2022-08-17T07:08:04.940Z,19.20
2022-08-17T07:10:37.995Z,18.23
2022-08-17T07:13:29.351Z,19.05
2022-08-17T07:16:13.148Z,18.63
2022-08-17T07:18:41.654Z,17.63
2022-08-17T07:21:26.924Z,18.42
2022-08-17T07:24:07.934Z,17.70
2022-08-17T07:26:35.916Z,17.98
2022-08-17T07:29:05.021Z,19.50
2022-08-17T07:31:34.285Z,19.23
2022-08-17T07:34:10.953Z,20.33
2022-08-17T07:36:38.861Z,22.02
2022-08-17T07:39:06.764Z,21.02
2022-08-17T07:41:57.441Z,21.55
2022-08-17T07:44:28.657Z,21.63
2022-08-17T07:47:15.874Z,22.85
2022-08-17T07:49:46.426Z,22.65
2022-08-17T07:52:51.049Z,22.55
2022-08-17T07:55:30.791Z,24.27
2022-08-17T07:58:05.220Z,25.10
2022-08-17T08:00:33.702Z,25.45
2022-08-17T08:03:13.317Z,24.60
2022-08-17T08:05:51.252Z,24.10
2022-08-17T08:08:26.533Z,24.05
2022-08-17T08:11:09.492Z,24.00
2022-08-17T08:13:42.734Z,23.92
2022-08-17T08:16:25.252Z,23.63
2022-08-17T08:19:03.861Z,22.80
2022-08-17T08:21:44.923Z,24.58
2022-08-17T08:24:30.716Z,24.45
2022-08-17T08:27:11.875Z,24.65
2022-08-17T08:29:49.340Z,23.90
2022-08-17T08:32:21.515Z,24.13
2022-08-17T08:35:03.860Z,22.88
2022-08-17T08:37:42.921Z,22.67
2022-08-17T08:40:24.780Z,21.85
2022-08-17T08:43:02.901Z,22.30
2022-08-17T08:45:53.202Z,20.33
2022-08-17T08:48:53.333Z,20.45
2022-08-17T08:51:37.625Z,21.98
2022-08-17T08:54:15.473Z,21.08
2022-08-17T08:57:11.879Z,22.25
2022-08-17T08:59:44.284Z,24.50
2022-08-17T09:02:21.427Z,21.58
2022-08-17T09:05:18.028Z,21.33
2022-08-17T09:11:32.494Z,18.48
2022-08-17T09:14:21.355Z,20.58
2022-08-17T09:17:03.707Z,20.42
2022-08-17T09:19:43.133Z,22.55
2022-08-17T09:22:23.653Z,21.52
2022-08-17T09:24:58.382Z,21.55
2022-08-17T09:27:34.064Z,21.92
2022-08-17T09:30:07.877Z,24.38
2022-08-17T09:32:40.622Z,25.20
2022-08-17T09:35:15.735Z,25.10
2022-08-17T09:37:51.793Z,22.35
2022-08-17T09:40:25.239Z,19.48
2022-08-17T09:43:00.518Z,19.73
2022-08-17T09:45:33.650Z,20.52
2022-08-17T09:48:06.640Z,18.35
2022-08-17T09:51:04.959Z,16.52
2022-08-17T09:53:31.853Z,17.83
2022-08-17T09:56:15.237Z,17.40
2022-08-17T09:59:02.434Z,16.83
2022-08-17T10:01:39.978Z,17.05
2022-08-17T10:04:37.427Z,14.57
2022-08-17T10:07:12.615Z,12.18
2022-08-17T10:09:56.783Z,12.70
2022-08-17T10:12:34.402Z,10.35
2022-08-17T10:15:15.261Z,10.75
2022-08-17T10:18:03.958Z,9.43
2022-08-17T10:20:37.875Z,8.88
2022-08-17T10:23:31.126Z,9.75
2022-08-17T10:26:16.443Z,9.70
2022-08-17T10:28:50.535Z,9.15
2022-08-17T10:31:34.774Z,9.70
2022-08-17T10:34:26.044Z,9.95
2022-08-17T10:36:59.457Z,9.82
2022-08-17T10:39:52.397Z,11.68
2022-08-17T10:42:30.369Z,9.55
2022-08-17T10:45:06.349Z,9.88
2022-08-17T10:48:04.820Z,10.85
2022-08-17T10:50:53.479Z,11.65
2022-08-17T10:53:55.153Z,12.85
2022-08-17T10:56:26.293Z,12.45
2022-08-17T10:58:55.872Z,13.00
2022-08-17T11:01:58.267Z,13.68
2022-08-17T11:04:42.058Z,13.93
2022-08-17T11:07:18.388Z,15.00
2022-08-17T11:10:06.408Z,16.20
2022-08-17T11:12:44.014Z,15.38
2022-08-17T11:15:25.717Z,15.85
2022-08-17T11:18:26.504Z,16.80
2022-08-17T11:21:32.100Z,17.42
2022-08-17T11:24:20.599Z,17.30
2022-08-17T11:27:04.782Z,18.35
2022-08-17T11:29:38.203Z,18.15
2022-08-17T11:32:13.330Z,19.48
2022-08-17T11:34:44.537Z,18.52
2022-08-17T11:37:36.183Z,18.20
2022-08-17T11:40:43.304Z,18.60
2022-08-17T11:43:48.556Z,18.42
2022-08-17T11:46:25.851Z,18.63
2022-08-17T11:49:21.353Z,17.88
2022-08-17T11:52:10.421Z,18.02
2022-08-17T11:54:45.578Z,17.77
2022-08-17T12:03:53.934Z,19.08
2022-08-17T12:06:33.201Z,20.45
2022-08-17T12:09:08.996Z,20.75
2022-08-17T12:12:12.627Z,20.60
2022-08-17T12:17:52.227Z,22.60
2022-08-17T12:20:30.700Z,25.35
2022-08-17T12:23:06.409Z,25.60
2022-08-17T12:25:40.139Z,26.33
2022-08-17T12:28:22.791Z,27.38
2022-08-17T12:30:53.091Z,27.70
2022-08-17T12:33:28.095Z,27.70
2022-08-17T12:36:03.019Z,26.60
2022-08-17T12:38:34.959Z,26.55
2022-08-17T12:41:23.433Z,28.50
2022-08-17T12:44:01.913Z,29.15
2022-08-17T12:46:35.050Z,27.63
2022-08-17T12:49:23.953Z,27.95
2022-08-17T12:51:56.579Z,27.08
2022-08-17T12:54:33.364Z,28.15
2022-08-17T12:57:10.025Z,27.27
2022-08-17T12:59:42.673Z,26.80
2022-08-17T13:02:39.856Z,25.88
2022-08-17T13:05:17.822Z,24.30
2022-08-17T13:07:47.646Z,24.95
2022-08-17T13:10:24.279Z,23.20
2022-08-17T13:12:54.884Z,24.48
2022-08-17T13:15:29.617Z,23.65
2022-08-17T13:18:08.303Z,24.83
2022-08-17T13:20:37.155Z,25.00
2022-08-17T13:23:12.671Z,23.70
2022-08-17T13:25:41.772Z,23.90
2022-08-17T13:28:32.469Z,23.80
2022-08-17T13:31:24.062Z,22.17
2022-08-17T13:33:53.607Z,20.05
2022-08-17T13:36:33.709Z,18.23
2022-08-17T13:39:08.878Z,18.75
2022-08-17T13:41:39.034Z,18.85
2022-08-17T13:44:31.200Z,19.40
2022-08-17T13:47:00.655Z,20.50
2022-08-17T13:49:41.608Z,22.15
2022-08-17T13:52:33.994Z,21.48
2022-08-17T13:55:06.010Z,22.63
2022-08-17T13:57:35.801Z,22.90
2022-08-17T14:00:17.447Z,25.35
2022-08-17T14:02:45.465Z,24.30
2022-08-17T14:05:16.052Z,25.17
2022-08-17T14:07:44.806Z,24.75
2022-08-17T14:10:15.723Z,25.55
2022-08-17T14:12:45.471Z,25.85
2022-08-17T14:15:15.291Z,26.38
2022-08-17T14:17:43.689Z,26.35
2022-08-17T14:20:15.162Z,27.27
2022-08-17T14:22:46.457Z,26.98
2022-08-17T14:25:16.431Z,25.27
2022-08-17T14:27:52.351Z,25.48
2022-08-17T14:30:24.131Z,26.20
2022-08-17T14:32:53.435Z,25.00
2022-08-17T14:35:24.561Z,25.58
2022-08-17T14:37:53.473Z,26.13
2022-08-17T14:40:24.766Z,25.65
2022-08-17T14:42:54.984Z,24.92
2022-08-17T14:45:30.115Z,25.27
2022-08-17T14:48:01.921Z,24.13
2022-08-17T14:50:31.829Z,23.10
2022-08-17T14:53:01.325Z,23.73
2022-08-17T14:55:31.006Z,22.40
2022-08-17T14:57:59.215Z,22.52
2022-08-17T15:00:28.459Z,23.30
2022-08-17T15:03:00.049Z,24.15
2022-08-17T15:05:33.695Z,23.98
2022-08-17T15:08:02.487Z,23.92
2022-08-17T15:10:31.393Z,23.85
2022-08-17T15:13:00.427Z,25.42
2022-08-17T15:15:29.700Z,24.90
2022-08-17T15:17:58.699Z,24.52
2022-08-17T15:20:29.786Z,23.63
2022-08-17T15:22:59.873Z,23.77
2022-08-17T15:25:30.225Z,24.33
2022-08-17T15:27:58.335Z,24.60
2022-08-17T15:30:27.176Z,25.33
2022-08-17T15:32:57.234Z,24.50
2022-08-17T15:35:29.096Z,25.60
2022-08-17T15:38:11.245Z,22.45
2022-08-17T15:40:42.166Z,21.13
2022-08-17T15:43:12.377Z,19.10
2022-08-17T15:45:41.064Z,16.42
2022-08-17T15:48:10.051Z,15.93
2022-08-17T15:50:38.173Z,14.77
2022-08-17T15:53:07.889Z,13.70
2022-08-17T15:55:38.278Z,14.55
2022-08-17T15:58:07.076Z,14.07
2022-08-17T16:00:53.052Z,14.75
2022-08-17T16:04:01.298Z,15.18
2022-08-17T16:06:13.517Z,15.88
2022-08-17T16:08:46.051Z,16.08
2022-08-17T16:11:16.156Z,13.85
2022-08-17T16:13:47.374Z,14.30
2022-08-17T16:16:23.581Z,14.27
2022-08-17T16:18:54.654Z,14.20
2022-08-17T16:21:26.979Z,14.73
2022-08-17T16:24:00.419Z,13.85
2022-08-17T16:26:29.169Z,13.23
2022-08-17T16:28:58.768Z,14.27
2022-08-17T16:31:27.356Z,13.45
2022-08-17T16:34:16.381Z,13.73
2022-08-17T16:36:50.554Z,13.25
2022-08-17T16:39:30.728Z,13.52
2022-08-17T16:41:59.035Z,14.15
2022-08-17T16:44:28.909Z,13.38
2022-08-17T16:46:57.555Z,14.25
2022-08-17T16:49:37.163Z,12.45
2022-08-17T16:52:09.850Z,12.65
2022-08-17T16:54:42.041Z,12.45
2022-08-17T16:57:11.151Z,13.18
2022-08-17T16:59:43.583Z,12.95
2022-08-17T17:02:15.681Z,12.30
2022-08-17T17:04:50.554Z,12.20
2022-08-17T17:07:34.733Z,12.27
2022-08-17T17:10:08.701Z,12.32
2022-08-17T17:13:01.349Z,13.18
2022-08-17T17:15:32.309Z,12.95
2022-08-17T17:18:07.123Z,13.00
2022-08-17T17:20:40.377Z,13.15
2022-08-17T17:23:12.591Z,12.70
2022-08-17T17:25:48.938Z,12.30
2022-08-17T17:28:25.032Z,11.50
2022-08-17T17:30:59.032Z,12.23
2022-08-17T17:33:38.542Z,11.57
2022-08-17T17:36:09.716Z,11.93
2022-08-17T17:38:43.639Z,12.27
2022-08-17T17:41:25.307Z,12.32
2022-08-17T17:44:02.927Z,13.18
2022-08-17T17:46:33.856Z,12.85
2022-08-17T17:49:01.881Z,13.85
2022-08-17T17:52:09.111Z,13.90
2022-08-17T17:54:40.125Z,15.18
2022-08-17T17:57:24.600Z,14.55
2022-08-17T18:00:01.793Z,16.77
2022-08-17T18:02:51.990Z,16.20
2022-08-17T18:05:34.405Z,17.15
2022-08-17T18:08:12.581Z,15.02
2022-08-17T18:10:50.733Z,14.38
2022-08-17T18:13:27.979Z,14.35
2022-08-17T18:16:00.692Z,11.73
2022-08-17T18:18:42.984Z,11.60
2022-08-17T18:21:16.727Z,11.60
2022-08-17T18:23:52.039Z,10.75
2022-08-17T18:26:44.823Z,11.20
2022-08-17T18:29:31.324Z,11.75
2022-08-17T18:32:24.343Z,10.45
2022-08-17T18:34:55.212Z,9.57
2022-08-17T18:37:44.931Z,8.38
2022-08-17T18:40:36.264Z,8.57
2022-08-17T18:43:12.749Z,8.20
2022-08-17T18:45:48.322Z,7.82
2022-08-17T18:48:29.086Z,9.02
2022-08-17T18:51:00.132Z,8.10
2022-08-17T18:53:33.563Z,7.40
2022-08-17T18:56:33.558Z,8.95
2022-08-17T18:59:18.685Z,7.55
2022-08-17T19:02:34.613Z,8.05
2022-08-17T19:05:13.541Z,9.20
2022-08-17T19:07:44.281Z,8.80
2022-08-17T19:10:24.048Z,8.02
2022-08-17T19:13:00.682Z,11.32
2022-08-17T19:15:34.225Z,9.30
2022-08-17T19:18:06.827Z,8.13
2022-08-17T19:20:39.080Z,12.10
2022-08-17T19:23:19.692Z,9.48
2022-08-17T19:25:50.850Z,9.70
2022-08-17T19:28:24.438Z,8.07
2022-08-17T19:31:02.086Z,6.97
2022-08-17T19:33:32.898Z,7.65
2022-08-17T19:36:07.756Z,11.02
2022-08-17T19:38:43.411Z,10.32
2022-08-17T19:41:21.631Z,12.63
2022-08-17T19:44:10.609Z,10.55
2022-08-17T19:46:48.614Z,12.77
2022-08-17T19:49:33.052Z,7.57
2022-08-17T19:52:41.696Z,12.90
2022-08-17T19:55:20.810Z,9.52
2022-08-17T19:57:57.097Z,9.48
2022-08-17T20:00:25.596Z,7.43
2022-08-17T20:02:58.580Z,7.80
2022-08-17T20:05:30.655Z,10.43
2022-08-17T20:08:05.846Z,10.30
2022-08-17T20:10:45.145Z,7.50
2022-08-17T20:13:19.607Z,9.65
2022-08-17T20:16:02.515Z,9.65
2022-08-17T20:18:37.758Z,9.10
2022-08-17T20:21:19.922Z,10.88
2022-08-17T20:23:54.256Z,11.48
2022-08-17T20:26:27.302Z,7.82
2022-08-17T20:29:36.991Z,7.45
2022-08-17T20:32:26.155Z,8.95
2022-08-17T20:35:10.758Z,9.27
2022-08-17T20:37:44.634Z,7.95
2022-08-17T20:40:20.599Z,11.27
2022-08-17T20:42:48.587Z,8.07
2022-08-17T20:46:03.376Z,8.50
2022-08-17T20:48:38.908Z,8.05
2022-08-17T20:51:23.474Z,8.80
2022-08-17T20:54:05.478Z,10.75
2022-08-17T20:56:49.107Z,8.63
2022-08-17T20:59:52.180Z,8.38
2022-08-17T21:02:22.547Z,8.35
2022-08-17T21:05:02.262Z,9.43
2022-08-17T21:07:53.669Z,8.35
2022-08-17T21:10:37.071Z,8.32
2022-08-17T21:13:37.715Z,10.75
2022-08-17T21:16:24.160Z,11.38
2022-08-17T21:18:59.249Z,9.27
2022-08-17T21:21:38.595Z,9.88
2022-08-17T21:24:19.444Z,8.13
2022-08-17T21:27:00.121Z,8.45
2022-08-17T21:29:33.787Z,8.35
2022-08-17T21:32:24.694Z,8.70
2022-08-17T21:35:28.883Z,8.15
2022-08-17T21:38:05.938Z,11.57
2022-08-17T21:40:35.353Z,10.05
2022-08-17T21:43:18.149Z,7.90
2022-08-17T21:45:57.617Z,8.43
2022-08-17T21:48:27.406Z,8.32
2022-08-17T21:51:02.853Z,7.97
2022-08-17T21:53:37.730Z,8.80
2022-08-17T21:56:06.969Z,8.00
2022-08-17T21:58:40.582Z,12.70
2022-08-17T22:01:19.228Z,7.85
2022-08-17T22:03:56.672Z,7.93
2022-08-17T22:06:26.992Z,6.47
2022-08-17T22:09:17.241Z,6.88
2022-08-17T22:11:58.090Z,8.35
2022-08-17T22:14:51.682Z,6.82
2022-08-17T22:17:22.746Z,6.63
2022-08-17T22:19:53.287Z,8.25
2022-08-17T22:22:29.666Z,7.35
2022-08-17T22:25:00.052Z,7.10
2022-08-17T22:27:51.235Z,10.77
2022-08-17T22:30:34.280Z,7.70
2022-08-17T22:33:22.896Z,10.27
2022-08-17T22:36:22.009Z,10.05
2022-08-17T22:38:51.837Z,8.68
2022-08-17T22:41:37.130Z,8.48
2022-08-17T22:44:15.306Z,8.93
2022-08-17T22:46:55.224Z,11.75
2022-08-17T22:49:27.218Z,9.35
2022-08-17T22:52:23.427Z,10.40
2022-08-17T22:55:25.468Z,10.52
2022-08-17T22:58:11.377Z,10.95
2022-08-17T23:00:41.689Z,18.83
2022-08-17T23:03:18.470Z,11.00
2022-08-17T23:05:51.183Z,9.35
2022-08-17T23:08:21.282Z,12.30
2022-08-17T23:10:52.645Z,7.00
2022-08-17T23:13:21.235Z,8.13
2022-08-17T23:15:50.517Z,9.95
2022-08-17T23:18:18.524Z,12.13
2022-08-17T23:20:53.381Z,7.28
2022-08-17T23:23:23.915Z,9.32
2022-08-17T23:25:52.066Z,8.15
2022-08-17T23:28:20.011Z,11.73
2022-08-17T23:30:48.250Z,9.27
2022-08-17T23:33:20.158Z,9.23
2022-08-17T23:35:48.459Z,9.18
2022-08-17T23:38:16.323Z,8.07
2022-08-17T23:40:47.190Z,5.50
2022-08-17T23:43:25.737Z,10.40
2022-08-17T23:46:01.070Z,7.82
2022-08-17T23:48:35.691Z,8.07
2022-08-17T23:51:13.060Z,8.27
2022-08-17T23:53:46.105Z,9.95
2022-08-17T23:56:16.010Z,9.68
2022-08-17T23:58:44.733Z,6.25
